VOI711 KLAX-MMMX
Flight info
| Callsign | VOI711 |
|---|---|
| Flight time | N/A |
| Altitude | 35000 |
| Route | PNDAH2 TCATE DCT PPE UJ7 HMO UT18 NABAS UT49 DGO UJ5 ZCL UT130 DARAN DARAN3B |
| Aircraft | A321/M-SDE3FGHIRWY/LB1 |
Departure
| Time | 2026-04-24 21:16 |
|---|---|
| Airport | Los Angeles International Airport (KLAX) |
Arrival
| Time | N/A |
|---|---|
| Airport | Mexico City Benito Juárez International Airport (MMMX) |
| Time | Latitude | Longitude | Altitude | Speed | Heading |
|---|---|---|---|---|---|
| 2026-04-24 20:32 | 33.94461 | -118.41128 | 93 ft | 0 kts | 84° |
| 2026-04-24 20:56 | 33.94460 | -118.41139 | 93 ft | 4 kts | 85° |
| 2026-04-24 20:56 | 33.94459 | -118.41171 | 91 ft | 4 kts | 90° |
| 2026-04-24 20:56 | 33.94460 | -118.41204 | 91 ft | 4 kts | 98° |
| 2026-04-24 20:57 | 33.94466 | -118.41235 | 92 ft | 4 kts | 118° |
| 2026-04-24 20:57 | 33.94481 | -118.41254 | 93 ft | 2 kts | 170° |
| 2026-04-24 20:57 | 33.94487 | -118.41255 | 92 ft | 0 kts | 171° |
| 2026-04-24 21:02 | 33.94482 | -118.41254 | 95 ft | 2 kts | 171° |
| 2026-04-24 21:02 | 33.94454 | -118.41249 | 94 ft | 5 kts | 171° |
| 2026-04-24 21:02 | 33.94413 | -118.41241 | 94 ft | 6 kts | 171° |
| 2026-04-24 21:03 | 33.94367 | -118.41232 | 93 ft | 5 kts | 171° |
| 2026-04-24 21:03 | 33.94328 | -118.41227 | 93 ft | 7 kts | 174° |
| 2026-04-24 21:03 | 33.94276 | -118.41221 | 95 ft | 8 kts | 174° |
| 2026-04-24 21:03 | 33.94216 | -118.41211 | 95 ft | 9 kts | 172° |
| 2026-04-24 21:04 | 33.94149 | -118.41201 | 94 ft | 11 kts | 173° |
| 2026-04-24 21:04 | 33.94073 | -118.41190 | 94 ft | 11 kts | 173° |
| 2026-04-24 21:04 | 33.93993 | -118.41178 | 94 ft | 12 kts | 173° |
| 2026-04-24 21:04 | 33.93924 | -118.41167 | 93 ft | 9 kts | 173° |
| 2026-04-24 21:05 | 33.93864 | -118.41160 | 93 ft | 7 kts | 174° |
| 2026-04-24 21:05 | 33.93817 | -118.41153 | 93 ft | 7 kts | 170° |
| 2026-04-24 21:05 | 33.93779 | -118.41123 | 95 ft | 7 kts | 129° |
| 2026-04-24 21:05 | 33.93769 | -118.41064 | 94 ft | 8 kts | 87° |
| 2026-04-24 21:06 | 33.93777 | -118.40992 | 93 ft | 9 kts | 81° |
| 2026-04-24 21:06 | 33.93787 | -118.40914 | 93 ft | 10 kts | 83° |
| 2026-04-24 21:06 | 33.93795 | -118.40829 | 96 ft | 11 kts | 83° |
| 2026-04-24 21:06 | 33.93805 | -118.40735 | 94 ft | 12 kts | 83° |
| 2026-04-24 21:07 | 33.93816 | -118.40624 | 94 ft | 16 kts | 83° |
| 2026-04-24 21:07 | 33.93831 | -118.40481 | 96 ft | 19 kts | 83° |
| 2026-04-24 21:07 | 33.93846 | -118.40326 | 95 ft | 19 kts | 83° |
| 2026-04-24 21:07 | 33.93863 | -118.40167 | 97 ft | 19 kts | 83° |
| 2026-04-24 21:08 | 33.93880 | -118.40005 | 96 ft | 19 kts | 83° |
| 2026-04-24 21:08 | 33.93897 | -118.39845 | 98 ft | 18 kts | 82° |
| 2026-04-24 21:08 | 33.93907 | -118.39730 | 95 ft | 14 kts | 85° |
| 2026-04-24 21:08 | 33.93917 | -118.39615 | 95 ft | 14 kts | 83° |
| 2026-04-24 21:09 | 33.93929 | -118.39494 | 96 ft | 15 kts | 83° |
| 2026-04-24 21:09 | 33.93943 | -118.39366 | 95 ft | 16 kts | 83° |
| 2026-04-24 21:09 | 33.93958 | -118.39225 | 93 ft | 17 kts | 82° |
| 2026-04-24 21:09 | 33.93973 | -118.39086 | 94 ft | 17 kts | 82° |
| 2026-04-24 21:10 | 33.93987 | -118.38971 | 95 ft | 12 kts | 83° |
| 2026-04-24 21:10 | 33.93995 | -118.38865 | 94 ft | 13 kts | 84° |
| 2026-04-24 21:10 | 33.94005 | -118.38752 | 94 ft | 13 kts | 84° |
| 2026-04-24 21:10 | 33.94016 | -118.38640 | 95 ft | 13 kts | 83° |
| 2026-04-24 21:11 | 33.94028 | -118.38528 | 97 ft | 14 kts | 83° |
| 2026-04-24 21:11 | 33.94039 | -118.38427 | 99 ft | 10 kts | 82° |
| 2026-04-24 21:11 | 33.94048 | -118.38358 | 96 ft | 8 kts | 81° |
| 2026-04-24 21:11 | 33.94056 | -118.38287 | 97 ft | 9 kts | 82° |
| 2026-04-24 21:12 | 33.94064 | -118.38205 | 94 ft | 11 kts | 84° |
| 2026-04-24 21:12 | 33.94069 | -118.38147 | 94 ft | 10 kts | 84° |
| 2026-04-24 21:12 | 33.94074 | -118.38094 | 93 ft | 1 kts | 83° |
| 2026-04-24 21:12 | 33.94077 | -118.38069 | 93 ft | 4 kts | 83° |
| 2026-04-24 21:13 | 33.94077 | -118.38048 | 93 ft | 0 kts | 95° |
| 2026-04-24 21:13 | 33.94076 | -118.38045 | 93 ft | 2 kts | 96° |
| 2026-04-24 21:13 | 33.94069 | -118.38026 | 93 ft | 4 kts | 122° |
| 2026-04-24 21:14 | 33.94046 | -118.38007 | 95 ft | 3 kts | 154° |
| 2026-04-24 21:14 | 33.94026 | -118.38002 | 95 ft | 4 kts | 176° |
| 2026-04-24 21:14 | 33.93998 | -118.38017 | 96 ft | 5 kts | 225° |
| 2026-04-24 21:14 | 33.93982 | -118.38061 | 96 ft | 7 kts | 256° |
| 2026-04-24 21:15 | 33.93973 | -118.38131 | 94 ft | 9 kts | 263° |
| 2026-04-24 21:15 | 33.93970 | -118.38158 | 95 ft | 0 kts | 263° |
| 2026-04-24 21:15 | 33.93950 | -118.38355 | 100 ft | 60 kts | 262° |
| 2026-04-24 21:15 | 33.93864 | -118.39176 | 95 ft | 134 kts | 263° |
| 2026-04-24 21:16 | 33.93730 | -118.40521 | 97 ft | 188 kts | 263° |
| 2026-04-24 21:16 | 33.93584 | -118.42197 | 468 ft | 207 kts | 263° |
| 2026-04-24 21:16 | 33.93427 | -118.44039 | 918 ft | 241 kts | 261° |
| 2026-04-24 21:16 | 33.93005 | -118.46165 | 1327 ft | 272 kts | 241° |
| 2026-04-24 21:17 | 33.92360 | -118.47406 | 1568 ft | 256 kts | 233° |
| 2026-04-24 21:17 | 33.91293 | -118.49087 | 1944 ft | 251 kts | 229° |
| 2026-04-24 21:17 | 33.90160 | -118.50691 | 2333 ft | 252 kts | 227° |
| 2026-04-24 21:17 | 33.88986 | -118.52273 | 2703 ft | 255 kts | 227° |
| 2026-04-24 21:18 | 33.87801 | -118.53873 | 3077 ft | 258 kts | 227° |
| 2026-04-24 21:18 | 33.86507 | -118.55380 | 3454 ft | 259 kts | 211° |
| 2026-04-24 21:18 | 33.84803 | -118.56022 | 3826 ft | 262 kts | 181° |
| 2026-04-24 21:18 | 33.82995 | -118.55692 | 4209 ft | 265 kts | 168° |
| 2026-04-24 21:19 | 33.81193 | -118.55199 | 4589 ft | 266 kts | 168° |
| 2026-04-24 21:19 | 33.79384 | -118.54699 | 4935 ft | 269 kts | 169° |
| 2026-04-24 21:19 | 33.77551 | -118.54195 | 4998 ft | 270 kts | 168° |
| 2026-04-24 21:19 | 33.75722 | -118.53699 | 5004 ft | 270 kts | 169° |
| 2026-04-24 21:20 | 33.72082 | -118.52542 | 5279 ft | 275 kts | 157° |
| 2026-04-24 21:20 | 33.70422 | -118.51402 | 6014 ft | 278 kts | 144° |
| 2026-04-24 21:20 | 33.68986 | -118.49817 | 6673 ft | 283 kts | 130° |
| 2026-04-24 21:21 | 33.67890 | -118.47841 | 7304 ft | 287 kts | 118° |
| 2026-04-24 21:21 | 33.66977 | -118.45688 | 7948 ft | 291 kts | 118° |
| 2026-04-24 21:21 | 33.66047 | -118.43510 | 8557 ft | 295 kts | 119° |
| 2026-04-24 21:21 | 33.65102 | -118.41310 | 9183 ft | 299 kts | 119° |
| 2026-04-24 21:22 | 33.64134 | -118.39073 | 9819 ft | 303 kts | 120° |
| 2026-04-24 21:22 | 33.63148 | -118.36799 | 10195 ft | 317 kts | 120° |
| 2026-04-24 21:22 | 33.62092 | -118.34371 | 10339 ft | 337 kts | 120° |
| 2026-04-24 21:22 | 33.60997 | -118.31837 | 10757 ft | 346 kts | 120° |
| 2026-04-24 21:23 | 33.59887 | -118.29255 | 11311 ft | 351 kts | 120° |
| 2026-04-24 21:23 | 33.58765 | -118.26640 | 11876 ft | 355 kts | 120° |
| 2026-04-24 21:23 | 33.57622 | -118.23987 | 12441 ft | 359 kts | 120° |
| 2026-04-24 21:23 | 33.56463 | -118.21310 | 12977 ft | 364 kts | 121° |
| 2026-04-24 21:24 | 33.55287 | -118.18597 | 13508 ft | 369 kts | 121° |
| 2026-04-24 21:24 | 33.54113 | -118.15881 | 14010 ft | 374 kts | 121° |
| 2026-04-24 21:24 | 33.52897 | -118.13067 | 14502 ft | 378 kts | 121° |
| 2026-04-24 21:24 | 33.51683 | -118.10244 | 14980 ft | 382 kts | 121° |
| 2026-04-24 21:25 | 33.50462 | -118.07407 | 15462 ft | 386 kts | 121° |
| 2026-04-24 21:25 | 33.49223 | -118.04533 | 15964 ft | 389 kts | 121° |
| 2026-04-24 21:25 | 33.47987 | -118.01679 | 16462 ft | 392 kts | 123° |
| 2026-04-24 21:25 | 33.46485 | -117.98971 | 16943 ft | 390 kts | 134° |
| 2026-04-24 21:26 | 33.44603 | -117.96641 | 17405 ft | 388 kts | 144° |
| 2026-04-24 21:26 | 33.42541 | -117.94468 | 17882 ft | 392 kts | 144° |
| 2026-04-24 21:26 | 33.40485 | -117.92298 | 18358 ft | 396 kts | 145° |
| 2026-04-24 21:26 | 33.38439 | -117.90133 | 18738 ft | 400 kts | 145° |
| 2026-04-24 21:27 | 33.36325 | -117.87890 | 19153 ft | 403 kts | 145° |
| 2026-04-24 21:27 | 33.34218 | -117.85652 | 19572 ft | 406 kts | 145° |
| 2026-04-24 21:27 | 33.32092 | -117.83395 | 20010 ft | 409 kts | 145° |
| 2026-04-24 21:27 | 33.29953 | -117.81129 | 20431 ft | 413 kts | 145° |
| 2026-04-24 21:28 | 33.27797 | -117.78847 | 20858 ft | 416 kts | 145° |
| 2026-04-24 21:28 | 33.25621 | -117.76545 | 21284 ft | 419 kts | 145° |
| 2026-04-24 21:28 | 33.23436 | -117.74236 | 21702 ft | 422 kts | 145° |
| 2026-04-24 21:28 | 33.21252 | -117.71930 | 22106 ft | 425 kts | 145° |
| 2026-04-24 21:29 | 33.19015 | -117.69552 | 22546 ft | 429 kts | 143° |
| 2026-04-24 21:29 | 33.17007 | -117.66857 | 22946 ft | 441 kts | 131° |
| 2026-04-24 21:29 | 33.15403 | -117.63685 | 23354 ft | 451 kts | 119° |
| 2026-04-24 21:29 | 33.14271 | -117.60166 | 23709 ft | 458 kts | 112° |
| 2026-04-24 21:30 | 33.13229 | -117.56550 | 24047 ft | 461 kts | 112° |
| 2026-04-24 21:30 | 33.12189 | -117.52978 | 24390 ft | 463 kts | 113° |
| 2026-04-24 21:30 | 33.11110 | -117.49306 | 24735 ft | 465 kts | 113° |
| 2026-04-24 21:30 | 33.10034 | -117.45662 | 25071 ft | 467 kts | 113° |
| 2026-04-24 21:31 | 33.08952 | -117.42003 | 25411 ft | 469 kts | 114° |
| 2026-04-24 21:31 | 33.07861 | -117.38329 | 25738 ft | 471 kts | 114° |
| 2026-04-24 21:31 | 33.06764 | -117.34640 | 26038 ft | 473 kts | 114° |
| 2026-04-24 21:31 | 33.05679 | -117.30987 | 26367 ft | 475 kts | 114° |
| 2026-04-24 21:32 | 33.04572 | -117.27261 | 26680 ft | 477 kts | 114° |
| 2026-04-24 21:32 | 33.03463 | -117.23537 | 26995 ft | 479 kts | 114° |
| 2026-04-24 21:32 | 33.02342 | -117.19780 | 27284 ft | 481 kts | 114° |
| 2026-04-24 21:32 | 33.01221 | -117.16025 | 27591 ft | 484 kts | 114° |
| 2026-04-24 21:33 | 33.00091 | -117.12238 | 27908 ft | 485 kts | 114° |
| 2026-04-24 21:33 | 32.98954 | -117.08441 | 28194 ft | 487 kts | 114° |
| 2026-04-24 21:33 | 32.97813 | -117.04633 | 28466 ft | 489 kts | 114° |
| 2026-04-24 21:33 | 32.96668 | -117.00806 | 28758 ft | 492 kts | 114° |
| 2026-04-24 21:34 | 32.95517 | -116.96964 | 29049 ft | 494 kts | 114° |
| 2026-04-24 21:34 | 32.94360 | -116.93105 | 29334 ft | 496 kts | 114° |
| 2026-04-24 21:34 | 32.93196 | -116.89236 | 29601 ft | 498 kts | 114° |
| 2026-04-24 21:34 | 32.92028 | -116.85361 | 29881 ft | 500 kts | 115° |
| 2026-04-24 21:35 | 32.90851 | -116.81460 | 30165 ft | 501 kts | 115° |
| 2026-04-24 21:35 | 32.89674 | -116.77553 | 30364 ft | 502 kts | 115° |
| 2026-04-24 21:35 | 32.88489 | -116.73619 | 30575 ft | 505 kts | 115° |
| 2026-04-24 21:35 | 32.87306 | -116.69694 | 30782 ft | 506 kts | 115° |
| 2026-04-24 21:36 | 32.86110 | -116.65744 | 30981 ft | 509 kts | 115° |
| 2026-04-24 21:36 | 32.84906 | -116.61777 | 31165 ft | 511 kts | 115° |
| 2026-04-24 21:36 | 32.83695 | -116.57796 | 31347 ft | 513 kts | 115° |
| 2026-04-24 21:36 | 32.82476 | -116.53804 | 31591 ft | 515 kts | 115° |
| 2026-04-24 21:37 | 32.81248 | -116.49798 | 31811 ft | 516 kts | 116° |
| 2026-04-24 21:37 | 32.79772 | -116.45938 | 32113 ft | 510 kts | 123° |
| 2026-04-24 21:37 | 32.78145 | -116.42192 | 32351 ft | 511 kts | 123° |
| 2026-04-24 21:37 | 32.76514 | -116.38441 | 32604 ft | 511 kts | 123° |
| 2026-04-24 21:38 | 32.74876 | -116.34680 | 32851 ft | 512 kts | 123° |
| 2026-04-24 21:38 | 32.73242 | -116.30926 | 33134 ft | 512 kts | 123° |
| 2026-04-24 21:38 | 32.71607 | -116.27166 | 33395 ft | 512 kts | 123° |
| 2026-04-24 21:38 | 32.69969 | -116.23406 | 33655 ft | 512 kts | 123° |
| 2026-04-24 21:39 | 32.68332 | -116.19658 | 33951 ft | 512 kts | 123° |
| 2026-04-24 21:39 | 32.66692 | -116.15905 | 34174 ft | 513 kts | 123° |
| 2026-04-24 21:39 | 32.65049 | -116.12145 | 34379 ft | 513 kts | 123° |
| 2026-04-24 21:39 | 32.63407 | -116.08389 | 34581 ft | 513 kts | 123° |
| 2026-04-24 21:40 | 32.61762 | -116.04631 | 34798 ft | 513 kts | 123° |
| 2026-04-24 21:40 | 32.60120 | -116.00885 | 34927 ft | 512 kts | 123° |
| 2026-04-24 21:40 | 32.58496 | -115.97178 | 34941 ft | 502 kts | 123° |
| 2026-04-24 21:41 | 32.55297 | -115.89893 | 34930 ft | 496 kts | 124° |
| 2026-04-24 21:41 | 32.52100 | -115.82667 | 34926 ft | 495 kts | 124° |
| 2026-04-24 21:42 | 32.48894 | -115.75444 | 34911 ft | 495 kts | 124° |
| 2026-04-24 21:42 | 32.45699 | -115.68227 | 34919 ft | 496 kts | 124° |
| 2026-04-24 21:43 | 32.42495 | -115.60989 | 34888 ft | 497 kts | 124° |
| 2026-04-24 21:43 | 32.39280 | -115.53739 | 34885 ft | 498 kts | 124° |
| 2026-04-24 21:44 | 32.36049 | -115.46487 | 34866 ft | 498 kts | 124° |
| 2026-04-24 21:44 | 32.32814 | -115.39243 | 34869 ft | 498 kts | 124° |
| 2026-04-24 21:45 | 32.29587 | -115.32007 | 34836 ft | 497 kts | 124° |
| 2026-04-24 21:45 | 32.26348 | -115.24786 | 34836 ft | 498 kts | 124° |
| 2026-04-24 21:46 | 32.23097 | -115.17551 | 34845 ft | 498 kts | 124° |
| 2026-04-24 21:46 | 32.19850 | -115.10329 | 34852 ft | 498 kts | 124° |
| 2026-04-24 21:47 | 32.16603 | -115.03102 | 34854 ft | 498 kts | 124° |
| 2026-04-24 21:47 | 32.13345 | -114.95886 | 34841 ft | 498 kts | 124° |
| 2026-04-24 21:48 | 32.10073 | -114.88675 | 34842 ft | 499 kts | 124° |
| 2026-04-24 21:48 | 32.06801 | -114.81467 | 34846 ft | 499 kts | 124° |
| 2026-04-24 21:49 | 32.03528 | -114.74250 | 34859 ft | 499 kts | 124° |
| 2026-04-24 21:49 | 32.00244 | -114.67033 | 34862 ft | 499 kts | 124° |
| 2026-04-24 21:50 | 31.96950 | -114.59833 | 34825 ft | 499 kts | 124° |
| 2026-04-24 21:50 | 31.93663 | -114.52621 | 34841 ft | 500 kts | 124° |
| 2026-04-24 21:51 | 31.90370 | -114.45396 | 34856 ft | 501 kts | 124° |
| 2026-04-24 21:51 | 31.87061 | -114.38192 | 34883 ft | 501 kts | 124° |
| 2026-04-24 21:52 | 31.83743 | -114.30976 | 34884 ft | 501 kts | 124° |
| 2026-04-24 21:52 | 31.80421 | -114.23765 | 34886 ft | 501 kts | 124° |
| 2026-04-24 21:53 | 31.77094 | -114.16555 | 34863 ft | 502 kts | 124° |
| 2026-04-24 21:53 | 31.73760 | -114.09345 | 34869 ft | 502 kts | 124° |
| 2026-04-24 21:54 | 31.70417 | -114.02133 | 34885 ft | 502 kts | 124° |
| 2026-04-24 21:54 | 31.67078 | -113.94936 | 34888 ft | 502 kts | 124° |
| 2026-04-24 21:55 | 31.63734 | -113.87732 | 34890 ft | 502 kts | 124° |
| 2026-04-24 21:55 | 31.60383 | -113.80534 | 34866 ft | 503 kts | 124° |
| 2026-04-24 21:56 | 31.57028 | -113.73347 | 34887 ft | 503 kts | 124° |
| 2026-04-24 21:56 | 31.53660 | -113.66140 | 34892 ft | 503 kts | 125° |
| 2026-04-24 21:57 | 31.50290 | -113.58956 | 34894 ft | 503 kts | 125° |
| 2026-04-24 21:57 | 31.46915 | -113.51776 | 34896 ft | 503 kts | 125° |
| 2026-04-24 21:58 | 31.43536 | -113.44589 | 34873 ft | 503 kts | 125° |
| 2026-04-24 21:58 | 31.40153 | -113.37417 | 34920 ft | 503 kts | 125° |
| 2026-04-24 21:59 | 31.36499 | -113.30501 | 34922 ft | 493 kts | 137° |
| 2026-04-24 21:59 | 31.34202 | -113.27582 | 34924 ft | 482 kts | 146° |
| 2026-04-24 21:59 | 31.31704 | -113.25011 | 34920 ft | 479 kts | 148° |
| 2026-04-24 22:00 | 31.27518 | -113.20754 | 34917 ft | 480 kts | 148° |
| 2026-04-24 22:00 | 31.22487 | -113.15620 | 34914 ft | 480 kts | 148° |
| 2026-04-24 22:01 | 31.17455 | -113.10495 | 34913 ft | 480 kts | 148° |
| 2026-04-24 22:01 | 31.12414 | -113.05379 | 34915 ft | 480 kts | 148° |
| 2026-04-24 22:02 | 31.07367 | -113.00254 | 34909 ft | 481 kts | 148° |
| 2026-04-24 22:02 | 31.02325 | -112.95144 | 34875 ft | 480 kts | 148° |
| 2026-04-24 22:03 | 30.97276 | -112.90046 | 34896 ft | 480 kts | 148° |
| 2026-04-24 22:03 | 30.92225 | -112.84947 | 34899 ft | 480 kts | 148° |
| 2026-04-24 22:04 | 30.87178 | -112.79852 | 34896 ft | 480 kts | 148° |
| 2026-04-24 22:04 | 30.82130 | -112.74764 | 34896 ft | 480 kts | 148° |
| 2026-04-24 22:05 | 30.77084 | -112.69686 | 34871 ft | 480 kts | 148° |
| 2026-04-24 22:05 | 30.72030 | -112.64608 | 34882 ft | 480 kts | 148° |
| 2026-04-24 22:06 | 30.66973 | -112.59558 | 34888 ft | 480 kts | 148° |
| 2026-04-24 22:06 | 30.61913 | -112.54506 | 34882 ft | 480 kts | 148° |
| 2026-04-24 22:07 | 30.56861 | -112.49450 | 34858 ft | 479 kts | 148° |
| 2026-04-24 22:07 | 30.51824 | -112.44401 | 34881 ft | 478 kts | 148° |
| 2026-04-24 22:08 | 30.46772 | -112.39364 | 34886 ft | 479 kts | 148° |
| 2026-04-24 22:08 | 30.41717 | -112.34337 | 34885 ft | 478 kts | 148° |
| 2026-04-24 22:09 | 30.36671 | -112.29321 | 34842 ft | 478 kts | 148° |
| 2026-04-24 22:09 | 30.31622 | -112.24313 | 34872 ft | 478 kts | 148° |
| 2026-04-24 22:10 | 30.26577 | -112.19318 | 34876 ft | 477 kts | 148° |
| 2026-04-24 22:10 | 30.21539 | -112.14326 | 34885 ft | 477 kts | 148° |
| 2026-04-24 22:11 | 30.16502 | -112.09341 | 34896 ft | 477 kts | 148° |
| 2026-04-24 22:11 | 30.11467 | -112.04372 | 34869 ft | 476 kts | 148° |
| 2026-04-24 22:12 | 30.06426 | -111.99397 | 34886 ft | 476 kts | 148° |
| 2026-04-24 22:12 | 30.01391 | -111.94438 | 34889 ft | 476 kts | 148° |
| 2026-04-24 22:13 | 29.96362 | -111.89489 | 34894 ft | 476 kts | 148° |
| 2026-04-24 22:13 | 29.91322 | -111.84537 | 34867 ft | 476 kts | 148° |
| 2026-04-24 22:14 | 29.86279 | -111.79600 | 34877 ft | 475 kts | 148° |
| 2026-04-24 22:14 | 29.81235 | -111.74664 | 34873 ft | 476 kts | 148° |
| 2026-04-24 22:15 | 29.76192 | -111.69730 | 34883 ft | 476 kts | 148° |
| 2026-04-24 22:15 | 29.71150 | -111.64802 | 34888 ft | 476 kts | 148° |
| 2026-04-24 22:16 | 29.66129 | -111.59903 | 34865 ft | 476 kts | 148° |
| 2026-04-24 22:16 | 29.61070 | -111.54980 | 34871 ft | 477 kts | 149° |
| 2026-04-24 22:17 | 29.56007 | -111.50051 | 34879 ft | 477 kts | 149° |
| 2026-04-24 22:17 | 29.50910 | -111.45095 | 34886 ft | 477 kts | 149° |
| 2026-04-24 22:18 | 29.45879 | -111.40211 | 34857 ft | 477 kts | 149° |
| 2026-04-24 22:18 | 29.40812 | -111.35307 | 34868 ft | 477 kts | 149° |
| 2026-04-24 22:19 | 29.35741 | -111.30403 | 34881 ft | 477 kts | 149° |
| 2026-04-24 22:19 | 29.30670 | -111.25516 | 34900 ft | 477 kts | 149° |
| 2026-04-24 22:20 | 29.25590 | -111.20622 | 34920 ft | 477 kts | 149° |
| 2026-04-24 22:20 | 29.20521 | -111.15740 | 34898 ft | 476 kts | 149° |
| 2026-04-24 22:21 | 29.15446 | -111.10862 | 34933 ft | 476 kts | 149° |
| 2026-04-24 22:21 | 29.10368 | -111.05991 | 34937 ft | 477 kts | 148° |
| 2026-04-24 22:22 | 29.05638 | -111.00557 | 34941 ft | 484 kts | 142° |
| 2026-04-24 22:22 | 29.00979 | -110.95008 | 34949 ft | 484 kts | 142° |
| 2026-04-24 22:23 | 28.96316 | -110.89456 | 34924 ft | 484 kts | 142° |
| 2026-04-24 22:23 | 28.91650 | -110.83915 | 34917 ft | 484 kts | 142° |
| 2026-04-24 22:24 | 28.86985 | -110.78385 | 34897 ft | 484 kts | 142° |
| 2026-04-24 22:24 | 28.82314 | -110.72855 | 34891 ft | 484 kts | 142° |
| 2026-04-24 22:25 | 28.77644 | -110.67340 | 34894 ft | 484 kts | 142° |
| 2026-04-24 22:25 | 28.72958 | -110.61827 | 34885 ft | 483 kts | 143° |
| 2026-04-24 22:26 | 28.68271 | -110.56362 | 34889 ft | 483 kts | 143° |
| 2026-04-24 22:26 | 28.63565 | -110.50897 | 34891 ft | 483 kts | 143° |
| 2026-04-24 22:27 | 28.58865 | -110.45452 | 34893 ft | 482 kts | 143° |
| 2026-04-24 22:27 | 28.54165 | -110.40003 | 34896 ft | 483 kts | 143° |
| 2026-04-24 22:28 | 28.49465 | -110.34551 | 34884 ft | 483 kts | 143° |
| 2026-04-24 22:28 | 28.44765 | -110.29114 | 34892 ft | 482 kts | 143° |
| 2026-04-24 22:29 | 28.37705 | -110.20972 | 34900 ft | 482 kts | 143° |
| 2026-04-24 22:29 | 28.33001 | -110.15548 | 34900 ft | 482 kts | 143° |
| 2026-04-24 22:30 | 28.28291 | -110.10121 | 34882 ft | 482 kts | 143° |
| 2026-04-24 22:30 | 28.23582 | -110.04711 | 34889 ft | 482 kts | 143° |
| 2026-04-24 22:31 | 28.18871 | -109.99301 | 34896 ft | 482 kts | 143° |
| 2026-04-24 22:31 | 28.14165 | -109.93892 | 34896 ft | 482 kts | 143° |
| 2026-04-24 22:32 | 28.09502 | -109.88426 | 34895 ft | 483 kts | 142° |
| 2026-04-24 22:32 | 28.04858 | -109.82938 | 34868 ft | 483 kts | 142° |
| 2026-04-24 22:33 | 28.00195 | -109.77464 | 34904 ft | 482 kts | 142° |
| 2026-04-24 22:33 | 27.95528 | -109.72025 | 34909 ft | 482 kts | 142° |
| 2026-04-24 22:34 | 27.90857 | -109.66591 | 34917 ft | 482 kts | 142° |
| 2026-04-24 22:34 | 27.86189 | -109.61154 | 34923 ft | 482 kts | 142° |
| 2026-04-24 22:35 | 27.81524 | -109.55715 | 34883 ft | 482 kts | 142° |
| 2026-04-24 22:35 | 27.76860 | -109.50290 | 34911 ft | 481 kts | 142° |
| 2026-04-24 22:36 | 27.72191 | -109.44879 | 34929 ft | 481 kts | 142° |
| 2026-04-24 22:36 | 27.67517 | -109.39463 | 34925 ft | 481 kts | 142° |
| 2026-04-24 22:37 | 27.62852 | -109.34057 | 34930 ft | 481 kts | 142° |
| 2026-04-24 22:37 | 27.58177 | -109.28653 | 34927 ft | 481 kts | 143° |
| 2026-04-24 22:38 | 27.53488 | -109.23297 | 34911 ft | 480 kts | 143° |
| 2026-04-24 22:38 | 27.48781 | -109.17954 | 34923 ft | 480 kts | 143° |
| 2026-04-24 22:39 | 27.44083 | -109.12623 | 34922 ft | 480 kts | 143° |
| 2026-04-24 22:39 | 27.39387 | -109.07283 | 34927 ft | 480 kts | 143° |
| 2026-04-24 22:40 | 27.34685 | -109.01947 | 34922 ft | 480 kts | 143° |
| 2026-04-24 22:40 | 27.29978 | -108.96618 | 34906 ft | 480 kts | 143° |
| 2026-04-24 22:41 | 27.25266 | -108.91290 | 34924 ft | 481 kts | 143° |
| 2026-04-24 22:41 | 27.21357 | -108.86864 | 34936 ft | 481 kts | 143° |
| 2026-04-24 22:42 | 27.15846 | -108.80634 | 34946 ft | 480 kts | 143° |
| 2026-04-24 22:42 | 27.11167 | -108.75359 | 34948 ft | 480 kts | 143° |
| 2026-04-24 22:43 | 27.06446 | -108.70048 | 34919 ft | 480 kts | 143° |
| 2026-04-24 22:43 | 27.01728 | -108.64746 | 34909 ft | 480 kts | 143° |
| 2026-04-24 22:44 | 26.97778 | -108.60306 | 34924 ft | 481 kts | 143° |
| 2026-04-24 22:44 | 26.93046 | -108.54997 | 34932 ft | 481 kts | 143° |
| 2026-04-24 22:45 | 26.88351 | -108.49742 | 34936 ft | 480 kts | 143° |
| 2026-04-24 22:45 | 26.83594 | -108.44422 | 34941 ft | 480 kts | 143° |
| 2026-04-24 22:46 | 26.78869 | -108.39136 | 34940 ft | 479 kts | 143° |
| 2026-04-24 22:46 | 26.74158 | -108.33873 | 34944 ft | 479 kts | 143° |
| 2026-04-24 22:47 | 26.69443 | -108.28617 | 34943 ft | 478 kts | 143° |
| 2026-04-24 22:47 | 26.64743 | -108.23384 | 34944 ft | 477 kts | 143° |
| 2026-04-24 22:48 | 26.60042 | -108.18151 | 34934 ft | 477 kts | 142° |
| 2026-04-24 22:48 | 26.55884 | -108.12246 | 34956 ft | 487 kts | 132° |
| 2026-04-24 22:49 | 26.51974 | -108.06121 | 34960 ft | 487 kts | 132° |
| 2026-04-24 22:49 | 26.48006 | -107.99930 | 34969 ft | 487 kts | 133° |
| 2026-04-24 22:50 | 26.44085 | -107.93834 | 34970 ft | 486 kts | 133° |
| 2026-04-24 22:50 | 26.40136 | -107.87706 | 34976 ft | 487 kts | 132° |
| 2026-04-24 22:51 | 26.36186 | -107.81574 | 34975 ft | 487 kts | 132° |
| 2026-04-24 22:51 | 26.32228 | -107.75437 | 34947 ft | 486 kts | 133° |
| 2026-04-24 22:52 | 26.28279 | -107.69327 | 34967 ft | 486 kts | 132° |
| 2026-04-24 22:52 | 26.24297 | -107.63165 | 34964 ft | 486 kts | 132° |
| 2026-04-24 22:53 | 26.20378 | -107.57104 | 34977 ft | 486 kts | 132° |
| 2026-04-24 22:53 | 26.16417 | -107.51011 | 34977 ft | 486 kts | 132° |
| 2026-04-24 22:54 | 26.12444 | -107.44922 | 34981 ft | 486 kts | 132° |
| 2026-04-24 22:54 | 26.08488 | -107.38833 | 34957 ft | 486 kts | 132° |
| 2026-04-24 22:55 | 26.04537 | -107.32738 | 34992 ft | 486 kts | 132° |
| 2026-04-24 22:55 | 26.00565 | -107.26646 | 34993 ft | 486 kts | 132° |
| 2026-04-24 22:56 | 25.96598 | -107.20572 | 34974 ft | 485 kts | 132° |
| 2026-04-24 22:56 | 25.92634 | -107.14507 | 34984 ft | 485 kts | 132° |
| 2026-04-24 22:57 | 25.88671 | -107.08453 | 34989 ft | 485 kts | 132° |
| 2026-04-24 22:57 | 25.84708 | -107.02396 | 34985 ft | 485 kts | 132° |
| 2026-04-24 22:58 | 25.80751 | -106.96329 | 35019 ft | 485 kts | 132° |
| 2026-04-24 22:58 | 25.76800 | -106.90271 | 35036 ft | 484 kts | 132° |
| 2026-04-24 22:59 | 25.72851 | -106.84239 | 35028 ft | 483 kts | 132° |
| 2026-04-24 23:00 | 25.66912 | -106.75194 | 35030 ft | 484 kts | 132° |
| 2026-04-24 23:00 | 25.62894 | -106.69087 | 35002 ft | 497 kts | 132° |
| 2026-04-24 23:01 | 25.58760 | -106.62828 | 34962 ft | 508 kts | 131° |
| 2026-04-24 23:01 | 25.54586 | -106.56499 | 34985 ft | 510 kts | 131° |
| 2026-04-24 23:02 | 25.50414 | -106.50157 | 34989 ft | 510 kts | 131° |
| 2026-04-24 23:02 | 25.46229 | -106.43810 | 34980 ft | 510 kts | 131° |
| 2026-04-24 23:03 | 25.42047 | -106.37475 | 34988 ft | 510 kts | 131° |
| 2026-04-24 23:03 | 25.37825 | -106.31187 | 34989 ft | 510 kts | 132° |
| 2026-04-24 23:04 | 25.33549 | -106.24920 | 34969 ft | 510 kts | 132° |
| 2026-04-24 23:04 | 25.29285 | -106.18674 | 34981 ft | 509 kts | 132° |
| 2026-04-24 23:05 | 25.25033 | -106.12414 | 34996 ft | 509 kts | 132° |
| 2026-04-24 23:05 | 25.20783 | -106.06158 | 34980 ft | 509 kts | 132° |
| 2026-04-24 23:06 | 25.16529 | -105.99935 | 34974 ft | 508 kts | 132° |
| 2026-04-24 23:06 | 25.12263 | -105.93700 | 34995 ft | 508 kts | 132° |
| 2026-04-24 23:07 | 25.08005 | -105.87476 | 34943 ft | 508 kts | 132° |
| 2026-04-24 23:07 | 25.03757 | -105.81270 | 34959 ft | 507 kts | 132° |
| 2026-04-24 23:08 | 24.99510 | -105.75059 | 34933 ft | 506 kts | 132° |
| 2026-04-24 23:08 | 24.95270 | -105.68869 | 34942 ft | 506 kts | 132° |
| 2026-04-24 23:09 | 24.91028 | -105.62693 | 34912 ft | 506 kts | 132° |
| 2026-04-24 23:09 | 24.86789 | -105.56517 | 34908 ft | 505 kts | 132° |
| 2026-04-24 23:10 | 24.82544 | -105.50354 | 34904 ft | 505 kts | 133° |
| 2026-04-24 23:10 | 24.78296 | -105.44192 | 34880 ft | 505 kts | 132° |
| 2026-04-24 23:11 | 24.74055 | -105.38033 | 34884 ft | 505 kts | 132° |
| 2026-04-24 23:11 | 24.69813 | -105.31879 | 34882 ft | 505 kts | 132° |
| 2026-04-24 23:12 | 24.65557 | -105.25735 | 34883 ft | 505 kts | 132° |
| 2026-04-24 23:12 | 24.61298 | -105.19602 | 34848 ft | 505 kts | 132° |
| 2026-04-24 23:13 | 24.57038 | -105.13474 | 34863 ft | 505 kts | 132° |
| 2026-04-24 23:13 | 24.52782 | -105.07347 | 34811 ft | 504 kts | 131° |
| 2026-04-24 23:14 | 24.48523 | -105.01230 | 34823 ft | 503 kts | 132° |
| 2026-04-24 23:14 | 24.44237 | -104.95089 | 34826 ft | 503 kts | 132° |
| 2026-04-24 23:15 | 24.39983 | -104.88994 | 34782 ft | 503 kts | 132° |
| 2026-04-24 23:15 | 24.35753 | -104.82943 | 34790 ft | 503 kts | 132° |
| 2026-04-24 23:16 | 24.31492 | -104.76862 | 34868 ft | 503 kts | 132° |
| 2026-04-24 23:16 | 24.27245 | -104.70793 | 34932 ft | 502 kts | 131° |
| 2026-04-24 23:17 | 24.22984 | -104.64722 | 35020 ft | 502 kts | 131° |
| 2026-04-24 23:17 | 24.18731 | -104.58674 | 35093 ft | 502 kts | 131° |
| 2026-04-24 23:18 | 24.14468 | -104.52611 | 35095 ft | 502 kts | 131° |
| 2026-04-24 23:18 | 24.10260 | -104.46527 | 35094 ft | 502 kts | 130° |
| 2026-04-24 23:19 | 24.06135 | -104.40350 | 35041 ft | 502 kts | 130° |
| 2026-04-24 23:19 | 24.02021 | -104.34169 | 34952 ft | 502 kts | 130° |
| 2026-04-24 23:20 | 23.97873 | -104.28018 | 34860 ft | 502 kts | 130° |
| 2026-04-24 23:20 | 23.93706 | -104.21895 | 34780 ft | 502 kts | 130° |
| 2026-04-24 23:21 | 23.89550 | -104.15784 | 34760 ft | 500 kts | 130° |
| 2026-04-24 23:21 | 23.85412 | -104.09678 | 34780 ft | 499 kts | 130° |
| 2026-04-24 23:22 | 23.81283 | -104.03597 | 34790 ft | 498 kts | 130° |
| 2026-04-24 23:22 | 23.77166 | -103.97540 | 34788 ft | 497 kts | 130° |
| 2026-04-24 23:23 | 23.73034 | -103.91479 | 34800 ft | 497 kts | 130° |
| 2026-04-24 23:23 | 23.68908 | -103.85433 | 34813 ft | 497 kts | 130° |
| 2026-04-24 23:24 | 23.64771 | -103.79377 | 34805 ft | 498 kts | 130° |
| 2026-04-24 23:24 | 23.60637 | -103.73331 | 34812 ft | 498 kts | 130° |
| 2026-04-24 23:25 | 23.56490 | -103.67292 | 34811 ft | 498 kts | 130° |
| 2026-04-24 23:25 | 23.53001 | -103.62225 | 34807 ft | 498 kts | 130° |
| 2026-04-24 23:26 | 23.48849 | -103.56180 | 34819 ft | 498 kts | 130° |
| 2026-04-24 23:26 | 23.44708 | -103.50129 | 34812 ft | 498 kts | 130° |
| 2026-04-24 23:27 | 23.40565 | -103.44086 | 34820 ft | 498 kts | 130° |
| 2026-04-24 23:27 | 23.36407 | -103.38053 | 34818 ft | 498 kts | 130° |
| 2026-04-24 23:28 | 23.32256 | -103.32035 | 34801 ft | 498 kts | 130° |
| 2026-04-24 23:28 | 23.28089 | -103.26001 | 34811 ft | 498 kts | 130° |
| 2026-04-24 23:29 | 23.23943 | -103.19990 | 34793 ft | 498 kts | 130° |
| 2026-04-24 23:29 | 23.19791 | -103.13977 | 34792 ft | 497 kts | 130° |
| 2026-04-24 23:30 | 23.15635 | -103.07967 | 34802 ft | 497 kts | 130° |
| 2026-04-24 23:30 | 23.11478 | -103.01971 | 34795 ft | 497 kts | 130° |
| 2026-04-24 23:31 | 23.07318 | -102.95983 | 34884 ft | 496 kts | 130° |
| 2026-04-24 23:31 | 23.03159 | -102.90000 | 34975 ft | 496 kts | 130° |
| 2026-04-24 23:32 | 22.99002 | -102.84028 | 35079 ft | 496 kts | 130° |
| 2026-04-24 23:32 | 22.94841 | -102.78063 | 35181 ft | 496 kts | 130° |
| 2026-04-24 23:33 | 22.90675 | -102.72095 | 35188 ft | 496 kts | 131° |
| 2026-04-24 23:33 | 22.88360 | -102.69360 | 35187 ft | 490 kts | 142° |
| 2026-04-24 23:33 | 22.85689 | -102.67117 | 35190 ft | 483 kts | 151° |
| 2026-04-24 23:34 | 22.80083 | -102.63093 | 35164 ft | 484 kts | 151° |
| 2026-04-24 23:34 | 22.74480 | -102.59050 | 35069 ft | 484 kts | 150° |
| 2026-04-24 23:35 | 22.68909 | -102.55034 | 34979 ft | 484 kts | 151° |
| 2026-04-24 23:35 | 22.63295 | -102.51003 | 34885 ft | 484 kts | 151° |
| 2026-04-24 23:36 | 22.57682 | -102.46974 | 34812 ft | 484 kts | 151° |
| 2026-04-24 23:36 | 22.52036 | -102.42925 | 34819 ft | 484 kts | 150° |
| 2026-04-24 23:37 | 22.46427 | -102.38895 | 34827 ft | 484 kts | 151° |
| 2026-04-24 23:37 | 22.38023 | -102.32875 | 34815 ft | 484 kts | 151° |
| 2026-04-24 23:38 | 22.32401 | -102.28865 | 34813 ft | 483 kts | 151° |
| 2026-04-24 23:38 | 22.26789 | -102.24868 | 34811 ft | 483 kts | 151° |
| 2026-04-24 23:39 | 22.21178 | -102.20879 | 34814 ft | 483 kts | 151° |
| 2026-04-24 23:39 | 22.15615 | -102.16914 | 34809 ft | 482 kts | 150° |
| 2026-04-24 23:40 | 22.10016 | -102.12923 | 34808 ft | 482 kts | 151° |
| 2026-04-24 23:40 | 22.04427 | -102.08945 | 34807 ft | 482 kts | 151° |
| 2026-04-24 23:41 | 21.98831 | -102.04962 | 34799 ft | 482 kts | 150° |
| 2026-04-24 23:41 | 21.93241 | -102.00997 | 34809 ft | 481 kts | 151° |
| 2026-04-24 23:42 | 21.87653 | -101.97039 | 34821 ft | 481 kts | 150° |
| 2026-04-24 23:42 | 21.82074 | -101.93083 | 34822 ft | 481 kts | 150° |
| 2026-04-24 23:43 | 21.76484 | -101.89126 | 34830 ft | 480 kts | 150° |
| 2026-04-24 23:43 | 21.70910 | -101.85174 | 34837 ft | 480 kts | 151° |
| 2026-04-24 23:44 | 21.65326 | -101.81234 | 34837 ft | 480 kts | 151° |
| 2026-04-24 23:44 | 21.59741 | -101.77296 | 34843 ft | 479 kts | 150° |
| 2026-04-24 23:45 | 21.54845 | -101.72398 | 34848 ft | 489 kts | 128° |
| 2026-04-24 23:45 | 21.51082 | -101.66294 | 34845 ft | 490 kts | 126° |
| 2026-04-24 23:46 | 21.47322 | -101.60185 | 34849 ft | 490 kts | 126° |
| 2026-04-24 23:46 | 21.43553 | -101.54075 | 34850 ft | 491 kts | 126° |
| 2026-04-24 23:47 | 21.39790 | -101.47973 | 34847 ft | 491 kts | 126° |
| 2026-04-24 23:47 | 21.36022 | -101.41866 | 34853 ft | 490 kts | 126° |
| 2026-04-24 23:48 | 21.32255 | -101.35774 | 34860 ft | 490 kts | 126° |
| 2026-04-24 23:48 | 21.28523 | -101.29739 | 34867 ft | 474 kts | 127° |
| 2026-04-24 23:49 | 21.26729 | -101.26835 | 34858 ft | 460 kts | 127° |
| 2026-04-24 23:49 | 21.24989 | -101.24019 | 34794 ft | 447 kts | 127° |
| 2026-04-24 23:49 | 21.23287 | -101.21266 | 34572 ft | 439 kts | 127° |
| 2026-04-24 23:49 | 21.21611 | -101.18562 | 34340 ft | 432 kts | 127° |
| 2026-04-24 23:50 | 21.19961 | -101.15906 | 34112 ft | 425 kts | 127° |
| 2026-04-24 23:50 | 21.18331 | -101.13287 | 33882 ft | 418 kts | 127° |
| 2026-04-24 23:50 | 21.16731 | -101.10718 | 33627 ft | 413 kts | 127° |
| 2026-04-24 23:50 | 21.15148 | -101.08175 | 33360 ft | 406 kts | 127° |
| 2026-04-24 23:51 | 21.13594 | -101.05679 | 33096 ft | 400 kts | 127° |
| 2026-04-24 23:51 | 21.12060 | -101.03216 | 32856 ft | 396 kts | 127° |
| 2026-04-24 23:51 | 21.10532 | -101.00765 | 32596 ft | 394 kts | 127° |
| 2026-04-24 23:51 | 21.09011 | -100.98325 | 32342 ft | 394 kts | 127° |
| 2026-04-24 23:52 | 21.07491 | -100.95884 | 32096 ft | 394 kts | 127° |
| 2026-04-24 23:52 | 21.05925 | -100.93477 | 31854 ft | 393 kts | 129° |
| 2026-04-24 23:52 | 21.04290 | -100.91134 | 31613 ft | 393 kts | 131° |
| 2026-04-24 23:52 | 21.02613 | -100.88826 | 31364 ft | 393 kts | 131° |
| 2026-04-24 23:53 | 21.00922 | -100.86530 | 31128 ft | 393 kts | 131° |
| 2026-04-24 23:53 | 20.99227 | -100.84218 | 30893 ft | 394 kts | 131° |
| 2026-04-24 23:53 | 20.97527 | -100.81878 | 30656 ft | 394 kts | 130° |
| 2026-04-24 23:53 | 20.95869 | -100.79578 | 30428 ft | 395 kts | 130° |
| 2026-04-24 23:54 | 20.94198 | -100.77250 | 30200 ft | 395 kts | 130° |
| 2026-04-24 23:54 | 20.92526 | -100.74913 | 29972 ft | 395 kts | 130° |
| 2026-04-24 23:54 | 20.90833 | -100.72541 | 29717 ft | 396 kts | 129° |
| 2026-04-24 23:54 | 20.89164 | -100.70203 | 29446 ft | 396 kts | 129° |
| 2026-04-24 23:55 | 20.87514 | -100.67896 | 29185 ft | 396 kts | 129° |
| 2026-04-24 23:55 | 20.85819 | -100.65530 | 28917 ft | 396 kts | 129° |
| 2026-04-24 23:55 | 20.84166 | -100.63229 | 28657 ft | 396 kts | 129° |
| 2026-04-24 23:55 | 20.82472 | -100.60871 | 28394 ft | 396 kts | 129° |
| 2026-04-24 23:56 | 20.80797 | -100.58540 | 28124 ft | 395 kts | 129° |
| 2026-04-24 23:56 | 20.79143 | -100.56241 | 27873 ft | 395 kts | 129° |
| 2026-04-24 23:56 | 20.77444 | -100.53880 | 27646 ft | 396 kts | 129° |
| 2026-04-24 23:56 | 20.75764 | -100.51543 | 27384 ft | 395 kts | 129° |
| 2026-04-24 23:57 | 20.74112 | -100.49246 | 27131 ft | 395 kts | 129° |
| 2026-04-24 23:57 | 20.72417 | -100.46890 | 26886 ft | 395 kts | 129° |
| 2026-04-24 23:57 | 20.70739 | -100.44564 | 26642 ft | 395 kts | 129° |
| 2026-04-24 23:57 | 20.69081 | -100.42263 | 26400 ft | 395 kts | 129° |
| 2026-04-24 23:58 | 20.67404 | -100.39937 | 26161 ft | 395 kts | 129° |
| 2026-04-24 23:58 | 20.65728 | -100.37612 | 25930 ft | 395 kts | 128° |
| 2026-04-24 23:58 | 20.64028 | -100.35253 | 25696 ft | 395 kts | 128° |
| 2026-04-24 23:58 | 20.62377 | -100.32962 | 25462 ft | 395 kts | 128° |
| 2026-04-24 23:59 | 20.60684 | -100.30613 | 25546 ft | 394 kts | 128° |
| 2026-04-24 23:59 | 20.59009 | -100.28290 | 25339 ft | 395 kts | 128° |
| 2026-04-24 23:59 | 20.57335 | -100.25972 | 25116 ft | 395 kts | 128° |
| 2026-04-24 23:59 | 20.55660 | -100.23658 | 24947 ft | 394 kts | 128° |
| 2026-04-25 00:00 | 20.53989 | -100.21352 | 24950 ft | 394 kts | 128° |
| 2026-04-25 00:00 | 20.52311 | -100.19033 | 24952 ft | 394 kts | 128° |
| 2026-04-25 00:00 | 20.50633 | -100.16714 | 24920 ft | 394 kts | 128° |
| 2026-04-25 00:00 | 20.48956 | -100.14395 | 24900 ft | 394 kts | 128° |
| 2026-04-25 00:01 | 20.47281 | -100.12079 | 24869 ft | 395 kts | 128° |
| 2026-04-25 00:01 | 20.45625 | -100.09791 | 24839 ft | 395 kts | 128° |
| 2026-04-25 00:01 | 20.43923 | -100.07440 | 24813 ft | 395 kts | 128° |
| 2026-04-25 00:01 | 20.42245 | -100.05125 | 24783 ft | 396 kts | 128° |
| 2026-04-25 00:02 | 20.40557 | -100.02797 | 24755 ft | 396 kts | 128° |
| 2026-04-25 00:02 | 20.38872 | -100.00477 | 24633 ft | 396 kts | 128° |
| 2026-04-25 00:02 | 20.37189 | -99.98164 | 24624 ft | 396 kts | 128° |
| 2026-04-25 00:02 | 20.35497 | -99.95840 | 24622 ft | 395 kts | 128° |
| 2026-04-25 00:03 | 20.33814 | -99.93523 | 24624 ft | 395 kts | 128° |
| 2026-04-25 00:03 | 20.32130 | -99.91204 | 24647 ft | 395 kts | 128° |
| 2026-04-25 00:03 | 20.30451 | -99.88895 | 24642 ft | 395 kts | 128° |
| 2026-04-25 00:03 | 20.28755 | -99.86563 | 24639 ft | 395 kts | 128° |
| 2026-04-25 00:04 | 20.27085 | -99.84264 | 24636 ft | 396 kts | 128° |
| 2026-04-25 00:04 | 20.25395 | -99.81941 | 24626 ft | 396 kts | 128° |
| 2026-04-25 00:04 | 20.23710 | -99.79626 | 24622 ft | 396 kts | 128° |
| 2026-04-25 00:04 | 20.22044 | -99.77288 | 24626 ft | 397 kts | 124° |
| 2026-04-25 00:05 | 20.20723 | -99.74751 | 24603 ft | 398 kts | 112° |
| 2026-04-25 00:05 | 20.20074 | -99.72898 | 24460 ft | 397 kts | 108° |
| 2026-04-25 00:05 | 20.18916 | -99.69199 | 24167 ft | 396 kts | 107° |
| 2026-04-25 00:05 | 20.18058 | -99.66434 | 23926 ft | 393 kts | 107° |
| 2026-04-25 00:06 | 20.17205 | -99.63681 | 23715 ft | 391 kts | 107° |
| 2026-04-25 00:06 | 20.16355 | -99.60927 | 23495 ft | 390 kts | 107° |
| 2026-04-25 00:06 | 20.15786 | -99.59088 | 23332 ft | 388 kts | 107° |
| 2026-04-25 00:06 | 20.14943 | -99.56368 | 23071 ft | 385 kts | 107° |
| 2026-04-25 00:07 | 20.14108 | -99.53676 | 22819 ft | 383 kts | 107° |
| 2026-04-25 00:07 | 20.13272 | -99.50984 | 22535 ft | 382 kts | 107° |
| 2026-04-25 00:07 | 20.12439 | -99.48308 | 22281 ft | 381 kts | 107° |
| 2026-04-25 00:07 | 20.11603 | -99.45631 | 22029 ft | 379 kts | 107° |
| 2026-04-25 00:08 | 20.10774 | -99.42984 | 21782 ft | 376 kts | 107° |
| 2026-04-25 00:08 | 20.09950 | -99.40357 | 21602 ft | 375 kts | 107° |
| 2026-04-25 00:08 | 20.09128 | -99.37729 | 21620 ft | 375 kts | 107° |
| 2026-04-25 00:08 | 20.08307 | -99.35105 | 21376 ft | 373 kts | 107° |
| 2026-04-25 00:09 | 20.07489 | -99.32488 | 20979 ft | 372 kts | 107° |
| 2026-04-25 00:09 | 20.06678 | -99.29893 | 20665 ft | 367 kts | 107° |
| 2026-04-25 00:09 | 20.05874 | -99.27321 | 20619 ft | 367 kts | 107° |
| 2026-04-25 00:09 | 20.05067 | -99.24739 | 20624 ft | 368 kts | 107° |
| 2026-04-25 00:10 | 20.04257 | -99.22147 | 20625 ft | 370 kts | 107° |
| 2026-04-25 00:10 | 20.03446 | -99.19557 | 20640 ft | 370 kts | 107° |
| 2026-04-25 00:10 | 20.02631 | -99.16959 | 20666 ft | 368 kts | 108° |
| 2026-04-25 00:10 | 20.01822 | -99.14386 | 20686 ft | 369 kts | 108° |
| 2026-04-25 00:11 | 20.01005 | -99.11791 | 20710 ft | 369 kts | 108° |
| 2026-04-25 00:11 | 20.00191 | -99.09209 | 20740 ft | 370 kts | 108° |
| 2026-04-25 00:11 | 19.99374 | -99.06613 | 20753 ft | 371 kts | 108° |
| 2026-04-25 00:11 | 19.98557 | -99.04017 | 20768 ft | 370 kts | 108° |
| 2026-04-25 00:12 | 19.97739 | -99.01424 | 20650 ft | 372 kts | 108° |
| 2026-04-25 00:12 | 19.96915 | -98.98782 | 19891 ft | 381 kts | 105° |
| 2026-04-25 00:12 | 19.96391 | -98.96034 | 19484 ft | 377 kts | 98° |
| 2026-04-25 00:12 | 19.95993 | -98.93285 | 19059 ft | 376 kts | 98° |
| 2026-04-25 00:13 | 19.95592 | -98.90550 | 18622 ft | 373 kts | 98° |
| 2026-04-25 00:13 | 19.95194 | -98.87833 | 18176 ft | 371 kts | 98° |
| 2026-04-25 00:13 | 19.94796 | -98.85135 | 17716 ft | 368 kts | 99° |
| 2026-04-25 00:13 | 19.94132 | -98.82523 | 17286 ft | 364 kts | 111° |
| 2026-04-25 00:14 | 19.93230 | -98.80035 | 16861 ft | 360 kts | 111° |
| 2026-04-25 00:14 | 19.92333 | -98.77559 | 16445 ft | 357 kts | 111° |
| 2026-04-25 00:14 | 19.91447 | -98.75107 | 16055 ft | 353 kts | 111° |
| 2026-04-25 00:14 | 19.90584 | -98.72714 | 15889 ft | 342 kts | 111° |
| 2026-04-25 00:15 | 19.89744 | -98.70384 | 15738 ft | 332 kts | 111° |
| 2026-04-25 00:15 | 19.88812 | -98.68202 | 15647 ft | 319 kts | 120° |
| 2026-04-25 00:15 | 19.87723 | -98.66188 | 15650 ft | 312 kts | 120° |
| 2026-04-25 00:15 | 19.86659 | -98.64203 | 15662 ft | 313 kts | 120° |
| 2026-04-25 00:16 | 19.85586 | -98.62200 | 15678 ft | 311 kts | 120° |
| 2026-04-25 00:16 | 19.84501 | -98.60170 | 15676 ft | 314 kts | 120° |
| 2026-04-25 00:16 | 19.83393 | -98.58205 | 15666 ft | 314 kts | 127° |
| 2026-04-25 00:16 | 19.81933 | -98.56513 | 15673 ft | 311 kts | 142° |
| 2026-04-25 00:17 | 19.80192 | -98.55098 | 15672 ft | 311 kts | 144° |
| 2026-04-25 00:17 | 19.78489 | -98.53729 | 15677 ft | 312 kts | 144° |
| 2026-04-25 00:17 | 19.76759 | -98.52330 | 15673 ft | 313 kts | 144° |
| 2026-04-25 00:17 | 19.75004 | -98.50910 | 15669 ft | 313 kts | 144° |
| 2026-04-25 00:18 | 19.73229 | -98.49608 | 15677 ft | 309 kts | 153° |
| 2026-04-25 00:18 | 19.71270 | -98.48771 | 15700 ft | 307 kts | 167° |
| 2026-04-25 00:18 | 19.69198 | -98.48218 | 15694 ft | 306 kts | 167° |
| 2026-04-25 00:18 | 19.67105 | -98.47658 | 15699 ft | 307 kts | 168° |
| 2026-04-25 00:19 | 19.65032 | -98.47433 | 15690 ft | 303 kts | 189° |
| 2026-04-25 00:19 | 19.63048 | -98.48058 | 15698 ft | 297 kts | 212° |
| 2026-04-25 00:19 | 19.61458 | -98.49427 | 15529 ft | 295 kts | 233° |
| 2026-04-25 00:19 | 19.60514 | -98.51319 | 15192 ft | 289 kts | 257° |
| 2026-04-25 00:20 | 19.60284 | -98.53406 | 14898 ft | 284 kts | 270° |
| 2026-04-25 00:20 | 19.60202 | -98.55487 | 14602 ft | 281 kts | 269° |
| 2026-04-25 00:20 | 19.60106 | -98.57552 | 14314 ft | 281 kts | 269° |
| 2026-04-25 00:20 | 19.60003 | -98.59629 | 14026 ft | 281 kts | 269° |
| 2026-04-25 00:21 | 19.59899 | -98.61694 | 13740 ft | 280 kts | 269° |
| 2026-04-25 00:21 | 19.59796 | -98.63756 | 13426 ft | 279 kts | 269° |
| 2026-04-25 00:21 | 19.59693 | -98.65803 | 13123 ft | 278 kts | 269° |
| 2026-04-25 00:21 | 19.59591 | -98.67851 | 12837 ft | 278 kts | 269° |
| 2026-04-25 00:22 | 19.59490 | -98.69888 | 12545 ft | 276 kts | 270° |
| 2026-04-25 00:22 | 19.59388 | -98.71917 | 12238 ft | 275 kts | 268° |
| 2026-04-25 00:22 | 19.58990 | -98.73935 | 11785 ft | 282 kts | 255° |
| 2026-04-25 00:22 | 19.58409 | -98.75885 | 11706 ft | 273 kts | 254° |
| 2026-04-25 00:23 | 19.57851 | -98.77807 | 11277 ft | 278 kts | 253° |
| 2026-04-25 00:23 | 19.57286 | -98.79762 | 11021 ft | 275 kts | 253° |
| 2026-04-25 00:23 | 19.56733 | -98.81672 | 10908 ft | 266 kts | 253° |
| 2026-04-25 00:23 | 19.56199 | -98.83515 | 10820 ft | 257 kts | 252° |
| 2026-04-25 00:24 | 19.55666 | -98.85294 | 10714 ft | 248 kts | 247° |
| 2026-04-25 00:24 | 19.54883 | -98.86899 | 10460 ft | 245 kts | 238° |
| 2026-04-25 00:24 | 19.53999 | -98.88426 | 10152 ft | 240 kts | 238° |
| 2026-04-25 00:24 | 19.53159 | -98.89906 | 9908 ft | 227 kts | 237° |
| 2026-04-25 00:25 | 19.52362 | -98.91325 | 9882 ft | 223 kts | 237° |
| 2026-04-25 00:25 | 19.51558 | -98.92734 | 10069 ft | 224 kts | 237° |
| 2026-04-25 00:25 | 19.50740 | -98.94192 | 9709 ft | 232 kts | 239° |
| 2026-04-25 00:25 | 19.50042 | -98.95519 | 10357 ft | 184 kts | 237° |
| 2026-04-25 00:26 | 19.49436 | -98.96568 | 11113 ft | 153 kts | 237° |
| 2026-04-25 00:26 | 19.48805 | -98.97496 | 11364 ft | 160 kts | 235° |
| 2026-04-25 00:26 | 19.48245 | -98.98553 | 11052 ft | 168 kts | 243° |
| 2026-04-25 00:26 | 19.47657 | -98.99669 | 10470 ft | 181 kts | 239° |
| 2026-04-25 00:27 | 19.47015 | -99.00854 | 9707 ft | 195 kts | 238° |
| 2026-04-25 00:27 | 19.46241 | -99.02157 | 8977 ft | 216 kts | 233° |
| 2026-04-25 00:27 | 19.45464 | -99.03495 | 8211 ft | 212 kts | 239° |
| 2026-04-25 00:27 | 19.44793 | -99.04821 | 7822 ft | 193 kts | 239° |
| 2026-04-25 00:28 | 19.44129 | -99.05895 | 8182 ft | 165 kts | 227° |
| 2026-04-25 00:28 | 19.43388 | -99.06773 | 8566 ft | 160 kts | 223° |
| 2026-04-25 00:28 | 19.42639 | -99.07666 | 8899 ft | 160 kts | 223° |
| 2026-04-25 00:28 | 19.41900 | -99.08594 | 8983 ft | 168 kts | 226° |
| 2026-04-25 00:29 | 19.41147 | -99.09516 | 9052 ft | 169 kts | 225° |
| 2026-04-25 00:29 | 19.40325 | -99.10428 | 9147 ft | 176 kts | 224° |
| 2026-04-25 00:29 | 19.39436 | -99.11418 | 9209 ft | 194 kts | 225° |
| 2026-04-25 00:29 | 19.38483 | -99.12501 | 9419 ft | 201 kts | 226° |
| 2026-04-25 00:30 | 19.37546 | -99.13575 | 9821 ft | 201 kts | 228° |
| 2026-04-25 00:30 | 19.36605 | -99.14660 | 10243 ft | 202 kts | 227° |
| 2026-04-25 00:30 | 19.35626 | -99.15756 | 10174 ft | 204 kts | 227° |
| 2026-04-25 00:30 | 19.34623 | -99.16859 | 10107 ft | 210 kts | 224° |
| 2026-04-25 00:31 | 19.33495 | -99.17848 | 10398 ft | 211 kts | 216° |
| 2026-04-25 00:31 | 19.32225 | -99.18649 | 10801 ft | 214 kts | 208° |
| 2026-04-25 00:31 | 19.30868 | -99.19295 | 11253 ft | 215 kts | 202° |
| 2026-04-25 00:31 | 19.29431 | -99.19769 | 11667 ft | 217 kts | 195° |
| 2026-04-25 00:32 | 19.27939 | -99.20048 | 12081 ft | 218 kts | 186° |
| 2026-04-25 00:32 | 19.26432 | -99.20051 | 12587 ft | 215 kts | 172° |
| 2026-04-25 00:32 | 19.25025 | -99.19645 | 13124 ft | 207 kts | 152° |
| 2026-04-25 00:32 | 19.23872 | -99.18798 | 13612 ft | 198 kts | 130° |
| 2026-04-25 00:33 | 19.23117 | -99.17625 | 14006 ft | 191 kts | 107° |
| 2026-04-25 00:33 | 19.22830 | -99.16256 | 14234 ft | 192 kts | 85° |
| 2026-04-25 00:33 | 19.23017 | -99.14864 | 14517 ft | 192 kts | 69° |
| 2026-04-25 00:33 | 19.23558 | -99.13584 | 14802 ft | 191 kts | 51° |
| 2026-04-25 00:34 | 19.24434 | -99.12549 | 15124 ft | 189 kts | 34° |
| 2026-04-25 00:34 | 19.25544 | -99.11788 | 15395 ft | 196 kts | 33° |
| 2026-04-25 00:34 | 19.26682 | -99.10811 | 15226 ft | 224 kts | 39° |
| 2026-04-25 00:34 | 19.27840 | -99.09652 | 14689 ft | 235 kts | 41° |
| 2026-04-25 00:35 | 19.29039 | -99.08413 | 14185 ft | 243 kts | 41° |
| 2026-04-25 00:35 | 19.30245 | -99.07178 | 13937 ft | 239 kts | 40° |
| 2026-04-25 00:35 | 19.31432 | -99.05986 | 13751 ft | 230 kts | 40° |
| 2026-04-25 00:35 | 19.32587 | -99.04845 | 13603 ft | 226 kts | 39° |
| 2026-04-25 00:36 | 19.33740 | -99.03718 | 13457 ft | 225 kts | 39° |
| 2026-04-25 00:36 | 19.34897 | -99.02597 | 13317 ft | 226 kts | 39° |
| 2026-04-25 00:36 | 19.36059 | -99.01475 | 13175 ft | 226 kts | 38° |
| 2026-04-25 00:36 | 19.37218 | -99.00357 | 13027 ft | 226 kts | 39° |
| 2026-04-25 00:37 | 19.38383 | -98.99238 | 12875 ft | 226 kts | 39° |
| 2026-04-25 00:37 | 19.39551 | -98.98119 | 12729 ft | 226 kts | 39° |
| 2026-04-25 00:37 | 19.40719 | -98.97000 | 12569 ft | 226 kts | 40° |
| 2026-04-25 00:37 | 19.41887 | -98.95883 | 12415 ft | 226 kts | 39° |
| 2026-04-25 00:38 | 19.43055 | -98.94763 | 12251 ft | 226 kts | 40° |
| 2026-04-25 00:38 | 19.44220 | -98.93646 | 12094 ft | 227 kts | 40° |
| 2026-04-25 00:38 | 19.45390 | -98.92523 | 11973 ft | 227 kts | 40° |
| 2026-04-25 00:38 | 19.46565 | -98.91395 | 11907 ft | 228 kts | 40° |
| 2026-04-25 00:39 | 19.47744 | -98.90264 | 11899 ft | 229 kts | 41° |
| 2026-04-25 00:39 | 19.48918 | -98.89136 | 11889 ft | 228 kts | 40° |
| 2026-04-25 00:39 | 19.50093 | -98.88005 | 11864 ft | 228 kts | 41° |
| 2026-04-25 00:39 | 19.51270 | -98.86872 | 11849 ft | 229 kts | 40° |
| 2026-04-25 00:40 | 19.52448 | -98.85738 | 11837 ft | 229 kts | 40° |
| 2026-04-25 00:40 | 19.53624 | -98.84605 | 11830 ft | 229 kts | 40° |
| 2026-04-25 00:40 | 19.54802 | -98.83470 | 11806 ft | 229 kts | 40° |
| 2026-04-25 00:40 | 19.55979 | -98.82335 | 11793 ft | 229 kts | 41° |
| 2026-04-25 00:41 | 19.57158 | -98.81202 | 11779 ft | 228 kts | 40° |
| 2026-04-25 00:41 | 19.58333 | -98.80077 | 11762 ft | 228 kts | 40° |
| 2026-04-25 00:41 | 19.59564 | -98.79019 | 11725 ft | 227 kts | 29° |
| 2026-04-25 00:41 | 19.60973 | -98.78293 | 11714 ft | 223 kts | 13° |
| 2026-04-25 00:42 | 19.62489 | -98.78034 | 11738 ft | 219 kts | 358° |
| 2026-04-25 00:42 | 19.63985 | -98.78270 | 11713 ft | 217 kts | 341° |
| 2026-04-25 00:42 | 19.65332 | -98.78970 | 11700 ft | 216 kts | 324° |
| 2026-04-25 00:42 | 19.66402 | -98.80058 | 11690 ft | 213 kts | 306° |
| 2026-04-25 00:43 | 19.66954 | -98.81480 | 11327 ft | 211 kts | 279° |
| 2026-04-25 00:43 | 19.66758 | -98.83018 | 10894 ft | 215 kts | 250° |
| 2026-04-25 00:43 | 19.65838 | -98.84274 | 10476 ft | 222 kts | 220° |
| 2026-04-25 00:43 | 19.64399 | -98.84876 | 10075 ft | 228 kts | 189° |
| 2026-04-25 00:44 | 19.62814 | -98.84994 | 9663 ft | 227 kts | 187° |
| 2026-04-25 00:44 | 19.61249 | -98.85094 | 9228 ft | 224 kts | 187° |
| 2026-04-25 00:44 | 19.59700 | -98.85194 | 8835 ft | 222 kts | 186° |
| 2026-04-25 00:44 | 19.58197 | -98.85295 | 8777 ft | 205 kts | 187° |
| 2026-04-25 00:45 | 19.56868 | -98.85386 | 9024 ft | 181 kts | 185° |
| 2026-04-25 00:45 | 19.55678 | -98.85469 | 8939 ft | 162 kts | 184° |
| 2026-04-25 00:45 | 19.54604 | -98.85570 | 8843 ft | 153 kts | 202° |
| 2026-04-25 00:45 | 19.53760 | -98.86222 | 8855 ft | 157 kts | 234° |
| 2026-04-25 00:46 | 19.53242 | -98.87254 | 8875 ft | 160 kts | 242° |
| 2026-04-25 00:46 | 19.52742 | -98.88299 | 8897 ft | 160 kts | 240° |
| 2026-04-25 00:46 | 19.51726 | -98.90411 | 8838 ft | 157 kts | 240° |
| 2026-04-25 00:47 | 19.51233 | -98.91435 | 8381 ft | 156 kts | 239° |
| 2026-04-25 00:47 | 19.50738 | -98.92459 | 7939 ft | 157 kts | 239° |
| 2026-04-25 00:47 | 19.50246 | -98.93474 | 7939 ft | 154 kts | 240° |
| 2026-04-25 00:47 | 19.49775 | -98.94451 | 7915 ft | 145 kts | 239° |
| 2026-04-25 00:48 | 19.49324 | -98.95391 | 7920 ft | 139 kts | 240° |
| 2026-04-25 00:48 | 19.48892 | -98.96286 | 7670 ft | 134 kts | 238° |
| 2026-04-25 00:48 | 19.48445 | -98.97184 | 7510 ft | 142 kts | 239° |
| 2026-04-25 00:48 | 19.47952 | -98.98132 | 7880 ft | 144 kts | 238° |
| 2026-04-25 00:49 | 19.47451 | -98.99053 | 8101 ft | 147 kts | 238° |
| 2026-04-25 00:49 | 19.46946 | -99.00011 | 8305 ft | 153 kts | 236° |
| 2026-04-25 00:49 | 19.46597 | -99.00690 | 8307 ft | 163 kts | 239° |
| 2026-04-25 00:49 | 19.46037 | -99.01783 | 8398 ft | 173 kts | 237° |
| 2026-04-25 00:50 | 19.45416 | -99.02909 | 8417 ft | 183 kts | 235° |
| 2026-04-25 00:50 | 19.44812 | -99.04154 | 8080 ft | 197 kts | 246° |
| 2026-04-25 00:50 | 19.44437 | -99.05518 | 7594 ft | 183 kts | 248° |
| 2026-04-25 00:50 | 19.43972 | -99.06630 | 7586 ft | 149 kts | 231° |
| 2026-04-25 00:51 | 19.43348 | -99.07404 | 7379 ft | 135 kts | 224° |